createdAt,value
2023-03-11T00:00:49.502Z,1.53
2023-03-11T00:03:18.774Z,1.80
2023-03-11T00:05:47.599Z,1.50
2023-03-11T00:08:17.259Z,1.53
2023-03-11T00:10:46.117Z,1.60
2023-03-11T00:13:17.078Z,1.50
2023-03-11T00:15:46.895Z,1.40
2023-03-11T00:18:15.062Z,1.63
2023-03-11T00:20:45.240Z,1.60
2023-03-11T00:23:13.873Z,1.70
2023-03-11T00:25:42.313Z,1.83
2023-03-11T00:28:11.025Z,1.63
2023-03-11T00:30:41.130Z,1.73
2023-03-11T00:33:09.702Z,1.50
2023-03-11T00:35:38.161Z,1.57
2023-03-11T00:38:07.416Z,1.30
2023-03-11T00:40:36.722Z,1.73
2023-03-11T00:43:05.489Z,1.40
2023-03-11T00:45:33.992Z,1.80
2023-03-11T00:48:03.537Z,1.67
2023-03-11T00:50:32.588Z,1.50
2023-03-11T00:53:00.768Z,1.77
2023-03-11T00:55:29.962Z,1.60
2023-03-11T00:57:59.934Z,1.80
2023-03-11T01:00:29.490Z,1.57
2023-03-11T01:02:58.235Z,1.67
2023-03-11T01:05:29.313Z,2.00
2023-03-11T01:07:57.606Z,1.70
2023-03-11T01:10:26.142Z,1.63
2023-03-11T01:12:54.310Z,2.10
2023-03-11T01:15:24.162Z,1.80
2023-03-11T01:17:52.312Z,2.23
2023-03-11T01:20:20.558Z,2.23
2023-03-11T01:22:50.095Z,1.90
2023-03-11T01:25:19.517Z,1.90
2023-03-11T01:27:47.945Z,2.70
2023-03-11T01:30:17.449Z,2.00
2023-03-11T01:32:45.742Z,2.23
2023-03-11T01:35:14.859Z,1.80
2023-03-11T01:37:43.099Z,2.10
2023-03-11T01:40:15.481Z,2.23
2023-03-11T01:42:43.597Z,2.33
2023-03-11T01:45:28.185Z,2.30
2023-03-11T01:47:56.690Z,2.20
2023-03-11T01:50:25.115Z,2.03
2023-03-11T01:52:53.266Z,2.27
2023-03-11T01:55:22.982Z,2.33
2023-03-11T01:57:51.758Z,2.30
2023-03-11T02:00:20.412Z,2.37
2023-03-11T02:02:50.663Z,2.73
2023-03-11T02:05:19.943Z,2.77
2023-03-11T02:07:48.292Z,2.40
2023-03-11T02:10:16.611Z,1.80
2023-03-11T02:12:47.202Z,2.23
2023-03-11T02:15:15.404Z,2.07
2023-03-11T02:17:43.999Z,2.40
2023-03-11T02:20:22.266Z,2.30
2023-03-11T02:22:51.698Z,2.00
2023-03-11T02:25:24.424Z,2.33
2023-03-11T02:27:55.042Z,2.17
2023-03-11T02:30:24.384Z,2.27
2023-03-11T02:32:52.829Z,2.17
2023-03-11T02:35:21.164Z,2.30
2023-03-11T02:37:50.388Z,2.53
2023-03-11T02:40:34.890Z,1.80
2023-03-11T02:43:05.614Z,1.80
2023-03-11T02:45:34.109Z,1.93
2023-03-11T02:48:02.353Z,1.90
2023-03-11T02:50:31.107Z,2.10
2023-03-11T02:52:59.238Z,1.83
2023-03-11T02:55:27.379Z,2.40
2023-03-11T02:57:55.512Z,2.10
2023-03-11T03:00:25.313Z,2.07
2023-03-11T03:02:53.977Z,1.60
2023-03-11T03:05:22.605Z,2.17
2023-03-11T03:07:51.043Z,2.43
2023-03-11T03:10:19.973Z,2.17
2023-03-11T03:12:48.140Z,2.70
2023-03-11T03:15:16.951Z,1.87
2023-03-11T03:17:46.480Z,2.27
2023-03-11T03:20:15.442Z,2.10
2023-03-11T03:22:43.889Z,2.10
2023-03-11T03:25:12.432Z,1.93
2023-03-11T03:27:40.935Z,2.20
2023-03-11T03:30:09.509Z,2.27
2023-03-11T03:32:38.106Z,1.73
2023-03-11T03:35:08.474Z,2.00
2023-03-11T03:37:38.027Z,2.27
2023-03-11T03:40:08.270Z,2.10
2023-03-11T03:42:36.716Z,2.63
2023-03-11T03:45:05.173Z,2.80
2023-03-11T03:47:33.821Z,2.63
2023-03-11T03:50:01.973Z,2.20
2023-03-11T03:52:31.462Z,2.27
2023-03-11T03:54:59.620Z,2.33
2023-03-11T03:57:27.769Z,2.57
2023-03-11T03:59:55.928Z,2.47
2023-03-11T04:02:24.450Z,2.67
2023-03-11T04:04:52.672Z,2.77
2023-03-11T04:07:21.004Z,3.07
2023-03-11T04:09:51.038Z,2.97
2023-03-11T04:12:19.275Z,2.23
2023-03-11T04:14:48.628Z,2.20
2023-03-11T04:17:17.750Z,2.73
2023-03-11T04:19:46.231Z,3.57
2023-03-11T04:22:14.395Z,2.57
2023-03-11T04:24:42.629Z,2.20
2023-03-11T04:27:12.120Z,2.73
2023-03-11T04:29:40.350Z,2.90
2023-03-11T04:32:08.994Z,2.50
2023-03-11T04:34:37.358Z,3.03
2023-03-11T04:37:05.524Z,2.67
2023-03-11T04:39:33.761Z,3.37
2023-03-11T04:42:03.977Z,2.80
2023-03-11T04:44:33.682Z,2.87
2023-03-11T04:47:01.827Z,3.10
2023-03-11T04:49:29.978Z,2.60
2023-03-11T04:51:58.159Z,2.87
2023-03-11T04:54:26.375Z,3.10
2023-03-11T04:56:54.517Z,2.63
2023-03-11T04:59:22.698Z,2.43
2023-03-11T05:01:52.288Z,3.07
2023-03-11T05:04:20.480Z,3.00
2023-03-11T05:06:50.786Z,3.10
2023-03-11T05:09:18.945Z,3.07
2023-03-11T05:11:47.099Z,2.93
2023-03-11T05:14:15.236Z,2.83
2023-03-11T05:16:43.417Z,2.97
2023-03-11T05:19:26.891Z,3.10
2023-03-11T05:21:55.185Z,2.53
2023-03-11T05:24:23.358Z,3.00
2023-03-11T05:26:51.520Z,2.87
2023-03-11T05:29:19.753Z,2.50
2023-03-11T05:31:48.021Z,3.77
2023-03-11T05:34:17.561Z,2.93
2023-03-11T05:36:46.028Z,3.90
2023-03-11T05:39:14.215Z,2.50
2023-03-11T05:41:43.043Z,3.07
2023-03-11T05:44:11.206Z,3.37
2023-03-11T05:46:39.458Z,2.80
2023-03-11T05:49:07.618Z,2.50
2023-03-11T05:51:37.560Z,2.73
2023-03-11T05:54:11.361Z,2.50
2023-03-11T05:56:39.494Z,2.80
2023-03-11T05:59:07.642Z,2.70
2023-03-11T06:01:35.864Z,2.60
2023-03-11T06:04:04.273Z,2.67
2023-03-11T06:06:32.589Z,2.83
2023-03-11T06:09:03.953Z,2.80
2023-03-11T06:11:32.203Z,2.87
2023-03-11T06:14:00.648Z,2.90
2023-03-11T06:16:28.874Z,3.00
2023-03-11T06:18:57.033Z,4.00
2023-03-11T06:21:26.706Z,2.87
2023-03-11T06:23:55.229Z,3.10
2023-03-11T06:26:25.262Z,3.23
2023-03-11T06:28:54.118Z,3.80
2023-03-11T06:31:24.201Z,3.43
2023-03-11T06:33:52.815Z,3.77
2023-03-11T06:36:21.806Z,3.80
2023-03-11T06:38:50.515Z,3.50
2023-03-11T06:41:18.679Z,3.23
2023-03-11T06:43:48.228Z,3.80
2023-03-11T06:46:17.378Z,3.40
2023-03-11T06:48:45.740Z,3.33
2023-03-11T06:51:13.978Z,2.93
2023-03-11T06:53:42.427Z,2.90
2023-03-11T06:56:12.194Z,2.57
2023-03-11T06:58:41.250Z,3.10
2023-03-11T07:01:12.768Z,2.50
2023-03-11T07:03:41.479Z,2.80
2023-03-11T07:06:13.154Z,2.73
2023-03-11T07:08:41.549Z,2.77
2023-03-11T07:11:10.980Z,3.17
2023-03-11T07:13:39.174Z,2.73
2023-03-11T07:16:08.351Z,2.83
2023-03-11T07:18:37.967Z,2.70
2023-03-11T07:21:06.973Z,2.33
2023-03-11T07:23:35.486Z,3.00
2023-03-11T07:26:04.864Z,2.90
2023-03-11T07:28:33.163Z,2.90
2023-03-11T07:31:01.361Z,2.80
2023-03-11T07:33:29.812Z,2.80
2023-03-11T07:35:59.508Z,2.63
2023-03-11T07:38:27.669Z,2.70
2023-03-11T07:40:59.495Z,2.90
2023-03-11T07:43:27.801Z,3.10
2023-03-11T07:46:03.605Z,2.40
2023-03-11T07:48:32.032Z,2.27
2023-03-11T07:51:06.104Z,2.10
2023-03-11T07:53:34.495Z,2.50
2023-03-11T07:56:02.865Z,3.03
2023-03-11T07:58:31.021Z,2.40
2023-03-11T08:00:59.201Z,2.60
2023-03-11T08:03:27.402Z,2.30
2023-03-11T08:05:55.617Z,2.60
2023-03-11T08:08:25.130Z,2.77
2023-03-11T08:10:53.312Z,2.50
2023-03-11T08:13:21.570Z,2.67
2023-03-11T08:15:49.819Z,2.63
2023-03-11T08:18:17.969Z,2.50
2023-03-11T08:20:46.142Z,2.60
2023-03-11T08:23:14.310Z,2.30
2023-03-11T08:25:43.826Z,2.23
2023-03-11T08:28:11.968Z,1.90
2023-03-11T08:30:41.982Z,2.23
2023-03-11T08:33:10.378Z,2.07
2023-03-11T08:35:38.597Z,2.40
2023-03-11T08:38:06.977Z,1.90
2023-03-11T08:40:35.157Z,2.10
2023-03-11T08:43:04.670Z,1.70
2023-03-11T08:45:32.889Z,2.00
2023-03-11T08:48:01.047Z,2.40
2023-03-11T08:50:29.315Z,1.70
2023-03-11T08:53:00.393Z,1.90
2023-03-11T08:55:28.561Z,1.73
2023-03-11T08:57:56.839Z,2.20
2023-03-11T09:00:26.571Z,1.50
2023-03-11T09:02:54.834Z,1.10
2023-03-11T09:05:23.099Z,1.10
2023-03-11T09:07:51.420Z,1.33
2023-03-11T09:10:19.752Z,1.20
2023-03-11T09:12:47.886Z,1.40
2023-03-11T09:15:16.039Z,1.67
2023-03-11T09:17:45.560Z,1.73
2023-03-11T09:20:14.481Z,1.40
2023-03-11T09:22:42.683Z,1.53
2023-03-11T09:25:12.933Z,1.17
2023-03-11T09:27:41.284Z,1.23
2023-03-11T09:30:10.212Z,1.43
2023-03-11T09:32:38.144Z,1.60
2023-03-11T09:35:07.943Z,1.30
2023-03-11T09:37:36.053Z,1.87
2023-03-11T09:40:04.354Z,1.30
2023-03-11T09:42:35.748Z,1.30
2023-03-11T09:45:06.614Z,1.20
2023-03-11T09:47:39.729Z,1.20
2023-03-11T09:50:21.963Z,1.10
2023-03-11T09:52:55.177Z,1.20
2023-03-11T09:55:28.569Z,0.90
2023-03-11T09:57:58.181Z,1.23
2023-03-11T10:00:26.736Z,1.20
2023-03-11T10:02:55.274Z,0.97
2023-03-11T10:05:27.382Z,0.80
2023-03-11T10:07:59.164Z,1.10
2023-03-11T10:10:29.227Z,1.00
2023-03-11T10:13:01.165Z,1.37
2023-03-11T10:15:33.648Z,0.90
2023-03-11T10:18:11.005Z,0.97
2023-03-11T10:20:44.341Z,1.30
2023-03-11T10:23:17.336Z,1.30
2023-03-11T10:25:51.556Z,0.87
2023-03-11T10:28:20.830Z,1.00
2023-03-11T10:30:50.181Z,0.80
2023-03-11T10:33:22.244Z,0.80
2023-03-11T10:35:53.510Z,1.00
2023-03-11T10:38:23.745Z,0.80
2023-03-11T10:40:53.028Z,0.93
2023-03-11T10:43:23.602Z,0.90
2023-03-11T10:45:52.415Z,1.10
2023-03-11T10:48:21.574Z,1.00
2023-03-11T10:50:54.720Z,1.20
2023-03-11T10:53:23.076Z,1.37
2023-03-11T10:55:51.834Z,1.10
2023-03-11T10:58:20.928Z,1.40
2023-03-11T11:01:00.842Z,1.50
2023-03-11T11:03:29.155Z,1.20
2023-03-11T11:06:03.433Z,1.50
2023-03-11T11:08:31.964Z,1.60
2023-03-11T11:11:01.135Z,1.17
2023-03-11T11:13:31.178Z,1.40
2023-03-11T11:16:00.761Z,1.40
2023-03-11T11:18:30.285Z,1.20
2023-03-11T11:21:02.031Z,1.17
2023-03-11T11:23:34.982Z,1.40
2023-03-11T11:26:04.718Z,1.60
2023-03-11T11:28:33.710Z,1.30
2023-03-11T11:31:03.690Z,1.50
2023-03-11T11:33:32.791Z,1.27
2023-03-11T11:36:03.065Z,1.33
2023-03-11T11:38:32.693Z,1.20
2023-03-11T11:41:04.810Z,1.40
2023-03-11T11:43:37.946Z,1.27
2023-03-11T11:46:08.238Z,1.30
2023-03-11T11:48:42.478Z,1.20
2023-03-11T11:51:16.275Z,2.50
2023-03-11T11:53:46.137Z,1.63
2023-03-11T11:56:15.860Z,1.23
2023-03-11T11:58:44.079Z,1.40
2023-03-11T12:01:16.363Z,1.30
2023-03-11T12:04:08.478Z,1.47
2023-03-11T12:06:40.569Z,1.37
2023-03-11T12:09:14.700Z,1.00
2023-03-11T12:11:49.067Z,1.10
2023-03-11T12:14:19.580Z,1.30
2023-03-11T12:16:52.817Z,1.30
2023-03-11T12:19:23.927Z,1.50
2023-03-11T12:22:13.224Z,1.87
2023-03-11T12:24:51.014Z,1.40
2023-03-11T12:27:24.372Z,1.23
2023-03-11T12:29:53.793Z,1.63
2023-03-11T12:32:25.199Z,1.30
2023-03-11T12:34:53.427Z,1.10
2023-03-11T12:37:23.643Z,1.40
2023-03-11T12:39:51.785Z,1.50
2023-03-11T12:42:22.699Z,1.40
2023-03-11T12:44:51.456Z,1.43
2023-03-11T12:47:23.788Z,1.33
2023-03-11T12:49:54.681Z,0.90
2023-03-11T12:52:24.803Z,1.20
2023-03-11T12:55:07.821Z,1.30
2023-03-11T12:57:38.815Z,1.10
2023-03-11T13:00:17.381Z,1.20
2023-03-11T13:03:00.603Z,1.10
2023-03-11T13:05:31.656Z,1.50
2023-03-11T13:08:01.551Z,1.10
2023-03-11T13:10:37.448Z,1.20
2023-03-11T13:13:20.472Z,1.20
2023-03-11T13:15:50.138Z,1.37
2023-03-11T13:18:25.184Z,1.43
2023-03-11T13:20:56.059Z,1.23
2023-03-11T13:23:28.611Z,1.27
2023-03-11T13:26:06.759Z,1.43
2023-03-11T13:28:46.404Z,1.30
2023-03-11T13:31:30.269Z,1.23
2023-03-11T13:33:59.665Z,1.20
2023-03-11T13:36:36.426Z,1.50
2023-03-11T13:39:20.636Z,1.37
2023-03-11T13:41:49.224Z,1.03
2023-03-11T13:44:22.254Z,1.43
2023-03-11T13:46:54.045Z,1.20
2023-03-11T13:49:28.115Z,1.57
2023-03-11T13:51:59.225Z,1.10
2023-03-11T13:54:32.389Z,0.90
2023-03-11T13:57:01.841Z,1.33
2023-03-11T13:59:31.009Z,1.33
2023-03-11T14:02:01.623Z,1.37
2023-03-11T14:04:30.800Z,1.63
2023-03-11T14:06:59.132Z,1.30
2023-03-11T14:09:28.031Z,1.30
2023-03-11T14:11:57.333Z,1.30
2023-03-11T14:14:39.578Z,1.27
2023-03-11T14:17:12.893Z,1.23
2023-03-11T14:19:41.039Z,1.10
2023-03-11T14:22:09.897Z,1.20
2023-03-11T14:24:38.324Z,1.10
2023-03-11T14:27:10.102Z,1.10
2023-03-11T14:29:39.051Z,1.13
2023-03-11T14:32:27.252Z,1.40
2023-03-11T14:34:55.505Z,1.27
2023-03-11T14:37:28.737Z,1.17
2023-03-11T14:39:56.899Z,1.40
2023-03-11T14:42:26.591Z,2.00
2023-03-11T14:44:57.522Z,1.13
2023-03-11T14:47:33.380Z,1.40
2023-03-11T14:50:01.949Z,1.40
2023-03-11T14:52:34.527Z,1.00
2023-03-11T14:55:03.535Z,1.23
2023-03-11T14:57:36.355Z,1.30
2023-03-11T15:00:07.714Z,1.20
2023-03-11T15:02:41.991Z,1.33
2023-03-11T15:05:13.639Z,1.30
2023-03-11T15:07:41.856Z,1.40
2023-03-11T15:10:11.008Z,1.23
2023-03-11T15:12:41.537Z,1.30
2023-03-11T15:15:22.798Z,1.40
2023-03-11T15:17:55.697Z,1.33
2023-03-11T15:20:29.237Z,1.33
2023-03-11T15:23:00.776Z,1.40
2023-03-11T15:25:30.445Z,1.70
2023-03-11T15:27:58.650Z,1.27
2023-03-11T15:30:28.178Z,1.60
2023-03-11T15:32:58.276Z,1.40
2023-03-11T15:35:27.261Z,1.70
2023-03-11T15:38:10.303Z,1.90
2023-03-11T15:40:45.463Z,1.40
2023-03-11T15:43:25.585Z,1.60
2023-03-11T15:45:55.039Z,1.60
2023-03-11T15:48:25.081Z,1.80
2023-03-11T15:50:54.882Z,1.70
2023-03-11T15:53:23.904Z,1.90
2023-03-11T15:55:52.575Z,1.47
2023-03-11T15:58:21.227Z,1.60
2023-03-11T16:00:50.345Z,1.50
2023-03-11T16:03:18.864Z,1.20
2023-03-11T16:05:48.613Z,1.47
2023-03-11T16:08:17.144Z,1.57
2023-03-11T16:10:45.389Z,1.40
2023-03-11T16:13:13.925Z,1.53
2023-03-11T16:15:42.845Z,1.30
2023-03-11T16:18:11.830Z,1.90
2023-03-11T16:20:41.590Z,1.60
2023-03-11T16:23:14.298Z,1.50
2023-03-11T16:25:42.494Z,1.90
2023-03-11T16:28:12.891Z,1.30
2023-03-11T16:30:41.043Z,1.87
2023-03-11T16:33:09.217Z,1.37
2023-03-11T16:35:38.076Z,1.40
2023-03-11T16:38:06.481Z,1.63
2023-03-11T16:40:36.133Z,1.50
2023-03-11T16:43:05.348Z,1.73
2023-03-11T16:45:33.557Z,1.47
2023-03-11T16:48:01.856Z,1.60
2023-03-11T16:50:30.089Z,1.50
2023-03-11T16:52:58.657Z,1.50
2023-03-11T16:55:30.624Z,1.30
2023-03-11T16:58:00.237Z,1.50
2023-03-11T17:00:28.497Z,1.60
2023-03-11T17:02:56.652Z,1.20
2023-03-11T17:05:24.819Z,1.70
2023-03-11T17:07:54.882Z,1.60
2023-03-11T17:10:24.466Z,1.40
2023-03-11T17:12:52.667Z,1.53
2023-03-11T17:15:22.662Z,1.60
2023-03-11T17:17:51.421Z,1.60
2023-03-11T17:20:21.604Z,1.57
2023-03-11T17:22:50.042Z,1.53
2023-03-11T17:25:18.243Z,1.30
2023-03-11T17:27:46.558Z,1.43
2023-03-11T17:30:24.275Z,2.23
2023-03-11T17:33:00.408Z,1.70
2023-03-11T17:35:30.214Z,1.73
2023-03-11T17:37:58.378Z,1.90
2023-03-11T17:40:26.897Z,1.77
2023-03-11T17:42:55.144Z,2.00
2023-03-11T17:45:23.292Z,2.00
2023-03-11T17:47:51.551Z,2.00
2023-03-11T17:50:21.741Z,2.07
2023-03-11T17:52:49.902Z,2.00
2023-03-11T17:55:18.074Z,2.13
2023-03-11T17:57:46.253Z,2.30
2023-03-11T18:00:15.343Z,1.70
2023-03-11T18:02:43.560Z,2.00
2023-03-11T18:05:12.253Z,1.80
2023-03-11T18:07:41.792Z,2.00
2023-03-11T18:10:10.939Z,1.73
2023-03-11T18:12:39.168Z,1.67
2023-03-11T18:15:14.151Z,1.63
2023-03-11T18:17:42.465Z,1.70
2023-03-11T18:20:11.100Z,1.90
2023-03-11T18:22:42.096Z,1.70
2023-03-11T18:25:13.932Z,1.93
2023-03-11T18:27:43.346Z,1.83
2023-03-11T18:30:12.217Z,1.70
2023-03-11T18:32:40.440Z,2.00
2023-03-11T18:35:09.078Z,1.80
2023-03-11T18:37:37.256Z,1.60
2023-03-11T18:40:06.915Z,2.43
2023-03-11T18:42:36.434Z,1.97
2023-03-11T18:45:04.661Z,2.20
2023-03-11T18:47:35.332Z,2.00
2023-03-11T18:50:03.516Z,2.40
2023-03-11T18:52:32.331Z,2.40
2023-03-11T18:55:00.524Z,2.80
2023-03-11T18:57:28.743Z,2.53
2023-03-11T18:59:58.268Z,2.93
2023-03-11T19:02:26.908Z,3.97
2023-03-11T19:04:55.202Z,2.70
2023-03-11T19:07:23.566Z,3.10
2023-03-11T19:09:51.774Z,3.00
2023-03-11T19:12:19.965Z,3.40
2023-03-11T19:14:48.131Z,2.80
2023-03-11T19:17:18.270Z,3.57
2023-03-11T19:19:46.619Z,4.07
2023-03-11T19:22:14.759Z,4.13
2023-03-11T19:24:42.955Z,4.93
2023-03-11T19:27:11.149Z,5.10
2023-03-11T19:29:39.315Z,6.53
2023-03-11T19:32:07.789Z,6.57
2023-03-11T19:34:38.386Z,7.60
2023-03-11T19:37:06.544Z,7.23
2023-03-11T19:39:34.734Z,8.13
2023-03-11T19:42:02.914Z,7.77
2023-03-11T19:44:31.085Z,6.97
2023-03-11T19:46:59.304Z,6.30
2023-03-11T19:49:27.480Z,6.70
2023-03-11T19:51:57.008Z,5.23
2023-03-11T19:54:25.223Z,5.33
2023-03-11T19:56:53.426Z,5.30
2023-03-11T19:59:21.638Z,5.23
2023-03-11T20:01:49.875Z,5.07
2023-03-11T20:04:18.212Z,4.83
2023-03-11T20:06:46.686Z,5.60
2023-03-11T20:09:17.617Z,6.13
2023-03-11T20:11:46.512Z,5.77
2023-03-11T20:14:14.910Z,4.67
2023-03-11T20:16:43.372Z,4.57
2023-03-11T20:19:11.792Z,4.50
2023-03-11T20:21:40.814Z,4.97
2023-03-11T20:24:10.553Z,4.20
2023-03-11T20:26:40.362Z,3.90
2023-03-11T20:29:08.794Z,4.47
2023-03-11T20:31:37.289Z,4.57
2023-03-11T20:34:05.545Z,4.10
2023-03-11T20:36:34.607Z,4.60
2023-03-11T20:39:03.232Z,4.37
2023-03-11T20:41:35.416Z,4.73
2023-03-11T20:44:05.510Z,5.27
2023-03-11T20:46:36.307Z,4.60
2023-03-11T20:49:05.157Z,4.50
2023-03-11T20:51:33.393Z,4.33
2023-03-11T20:54:01.705Z,4.00
2023-03-11T20:56:30.188Z,4.30
2023-03-11T20:59:00.774Z,4.43
2023-03-11T21:01:31.309Z,4.37
2023-03-11T21:04:00.858Z,4.10
2023-03-11T21:06:29.994Z,4.17
2023-03-11T21:08:59.207Z,5.33
2023-03-11T21:11:28.199Z,7.93
2023-03-11T21:13:57.215Z,7.17
2023-03-11T21:16:26.866Z,6.60
2023-03-11T21:18:56.623Z,4.90
2023-03-11T21:21:25.104Z,5.73
2023-03-11T21:23:53.461Z,3.77
2023-03-11T21:26:21.711Z,3.67
2023-03-11T21:28:49.926Z,3.53
2023-03-11T21:31:19.185Z,3.33
2023-03-11T21:33:47.689Z,2.70
2023-03-11T21:36:17.617Z,3.37
2023-03-11T21:38:46.326Z,3.13
2023-03-11T21:41:15.880Z,3.00
2023-03-11T21:43:44.625Z,3.47
2023-03-11T21:46:14.526Z,3.10
2023-03-11T21:48:42.875Z,3.03
2023-03-11T21:51:11.106Z,2.83
2023-03-11T21:53:40.632Z,3.43
2023-03-11T21:56:09.977Z,3.10
2023-03-11T21:58:38.287Z,2.90
2023-03-11T22:01:06.886Z,3.23
2023-03-11T22:03:35.991Z,3.00
2023-03-11T22:06:05.220Z,2.97
2023-03-11T22:08:33.618Z,3.20
2023-03-11T22:11:03.697Z,2.90
2023-03-11T22:13:32.227Z,3.53
2023-03-11T22:16:03.619Z,3.20
2023-03-11T22:18:31.996Z,3.00
2023-03-11T22:21:00.554Z,2.80
2023-03-11T22:23:29.308Z,2.73
2023-03-11T22:25:57.631Z,3.03
2023-03-11T22:28:27.288Z,2.87
2023-03-11T22:30:55.593Z,3.33
2023-03-11T22:33:23.764Z,2.57
2023-03-11T22:35:52.459Z,2.63
2023-03-11T22:38:20.634Z,2.27
2023-03-11T22:40:48.825Z,2.67
2023-03-11T22:43:17.153Z,2.30
2023-03-11T22:45:47.678Z,2.30
2023-03-11T22:48:16.964Z,1.97
2023-03-11T22:50:45.733Z,2.87
2023-03-11T22:53:15.014Z,2.23
2023-03-11T22:55:43.286Z,2.00
2023-03-11T22:58:11.690Z,2.50
2023-03-11T23:00:40.367Z,2.60
2023-03-11T23:03:09.920Z,2.20
2023-03-11T23:05:41.995Z,2.70
2023-03-11T23:08:11.004Z,2.50
2023-03-11T23:10:41.550Z,2.20
2023-03-11T23:13:09.797Z,2.23
2023-03-11T23:15:38.003Z,2.70
2023-03-11T23:18:06.493Z,2.60
2023-03-11T23:20:37.564Z,2.60
2023-03-11T23:23:06.240Z,2.30
2023-03-11T23:25:34.709Z,1.93
2023-03-11T23:28:03.408Z,2.10
2023-03-11T23:30:31.870Z,2.90
2023-03-11T23:33:02.644Z,2.07
2023-03-11T23:35:30.894Z,1.87
2023-03-11T23:38:00.415Z,1.67
2023-03-11T23:40:28.895Z,2.07
2023-03-11T23:42:57.153Z,2.00
2023-03-11T23:45:25.356Z,1.83
2023-03-11T23:47:53.602Z,1.97
2023-03-11T23:50:21.798Z,2.33
2023-03-11T23:52:49.982Z,1.60
2023-03-11T23:55:19.610Z,1.70
2023-03-11T23:57:47.757Z,2.10
